Airfield :
LOGIN :

Register | Disclaimer

   EN    FR    IT 

 










Legend :    VFR   Marginal VFR   IFR   Intensive IFR   Very Intensive IFR
Visi :
Ceiling :
>= 8 km
>= 3000ft
5 to 8 km
1000 to 3000 ft
1500m to 5 km
500 to 1000 ft
800 to 1500m
200 to 500 ft
< 800m
< 200 ft
Symbols :   Thunderstorms  Fog  Heavy snow  Heavy precipitations  Wind > 20 kt
SIGMETs :     Misc.  Thunderstorms  Icing  Turbulence  Mountain Waves  Volcanic Ashes






- Airport Elevation : 1682 ft
- IATA code : VIT


LEVT - Vitoria Gasteiz

CURRENT METAR :
  • 310700Z VRB02KT 9999 FEW040 20/15 Q1013

EXPIRED METARs :
  • 310630Z VRB02KT 9999 FEW040 17/14 Q1013
  • 310600Z 21002KT 9999 FEW040 15/14 Q1013
  • 310530Z 00000KT CAVOK 13/12 Q1013
  • 310500Z 00000KT CAVOK 12/11 Q1012
  • 310430Z 00000KT CAVOK 12/11 Q1012

TAF TAF LEVT
Valid from the 31 at 06:00 until the 01 at 06:00 UTC


310500Z 3106/0106 VRB05KT 9999 FEW040 TX29/3115Z TN12/0106Z
TEMPO 3110/3118 18010KT
TEMPO 3112/0102 VRB15G30KT 3000 TSRA SCT020TCU SCT030CB
PROB30
TEMPO 3112/3124 VRB15G30KT 1500 +TSRA BKN030CB



MET'MAP, your aeronautical weather chart ! - Copyright ORBIFLY December 2007 - Disclaimer

ORBIFLY MET'MAP TEAM :

Programming & Development : Alexandra Zaïnal
Concept & original design : Baudouin d'Aumeries
Assistance for programming : Marc-Olivier Méhu
Technical & hardware support : Manuel Goepfert

Contact : metmap@orbifly.com




SOURCES & CREDITS :

   NOAA